Cedar Hammock, Florida
Current Conditions -  °F | °C
As of 12:53 AM on Monday 26 Jan 2015 (Local Time) from KSRQ Reporting Station
Clear Clear  
Wind Chill: 63°   Ceiling: Unl
Heat Index: 63°   Visibility: 10mi
Dew Point: 54°   Wind: 8mph
Humidity: 72%   Direction: 230°SW
Pressure: 29.91"   Gusts: NA
Location:  27.4818°N, 82.584°W
Report Text: KSRQ 260553Z 23007KT 10SM CLR 17/12 A2991 RMK AO2 SLP129 T01720122 10178 20122 58020
Loading
Personal Weather Stations






























Interactive Weather Map New forecast layout! Learn more

10-Day Weather Forecast

Advertisements
Track Severe Weather on mobile